createdAt,value
2022-08-25T00:00:43.827Z,58.50
2022-08-25T00:01:51.441Z,58.50
2022-08-25T00:02:57.689Z,58.50
2022-08-25T00:04:02.681Z,58.60
2022-08-25T00:05:05.699Z,58.60
2022-08-25T00:06:09.907Z,59.10
2022-08-25T00:07:12.269Z,58.60
2022-08-25T00:08:20.859Z,58.60
2022-08-25T00:09:25.349Z,58.60
2022-08-25T00:10:30.939Z,58.70
2022-08-25T00:11:38.603Z,58.60
2022-08-25T00:12:41.003Z,58.70
2022-08-25T00:13:45.886Z,58.70
2022-08-25T00:14:48.236Z,58.70
2022-08-25T00:15:50.595Z,58.70
2022-08-25T00:16:53.319Z,58.70
2022-08-25T00:18:00.010Z,58.70
2022-08-25T00:19:09.169Z,58.70
2022-08-25T00:20:11.696Z,58.80
2022-08-25T00:21:15.253Z,58.80
2022-08-25T00:22:17.601Z,58.80
2022-08-25T00:23:20.634Z,58.80
2022-08-25T00:24:24.452Z,58.80
2022-08-25T00:25:29.330Z,58.80
2022-08-25T00:26:32.260Z,58.90
2022-08-25T00:27:34.611Z,58.80
2022-08-25T00:28:37.834Z,58.90
2022-08-25T00:29:40.188Z,58.90
2022-08-25T00:30:46.586Z,58.90
2022-08-25T00:31:52.376Z,59.00
2022-08-25T00:32:57.453Z,58.90
2022-08-25T00:34:03.031Z,58.90
2022-08-25T00:35:06.370Z,59.00
2022-08-25T00:36:15.470Z,59.00
2022-08-25T00:37:17.826Z,58.90
2022-08-25T00:38:20.573Z,59.00
2022-08-25T00:39:28.683Z,58.90
2022-08-25T00:40:31.069Z,59.00
2022-08-25T00:41:35.911Z,59.00
2022-08-25T00:42:38.505Z,59.00
2022-08-25T00:43:42.810Z,59.00
2022-08-25T00:44:45.442Z,59.00
2022-08-25T00:45:48.416Z,59.70
2022-08-25T00:46:54.345Z,59.10
2022-08-25T00:48:00.206Z,59.10
2022-08-25T00:49:06.989Z,59.10
2022-08-25T00:50:12.371Z,59.10
2022-08-25T00:51:20.919Z,59.10
2022-08-25T00:52:34.365Z,59.10
2022-08-25T00:53:37.619Z,59.10
2022-08-25T00:54:54.709Z,59.10
2022-08-25T00:55:58.906Z,59.20
2022-08-25T00:57:02.886Z,59.10
2022-08-25T00:58:15.942Z,59.20
2022-08-25T00:59:23.265Z,59.10
2022-08-25T01:00:33.525Z,59.20
2022-08-25T01:01:40.808Z,59.20
2022-08-25T01:02:43.660Z,59.20
2022-08-25T01:03:46.194Z,59.30
2022-08-25T01:04:49.298Z,59.30
2022-08-25T01:05:52.745Z,59.30
2022-08-25T01:07:00.128Z,59.30
2022-08-25T01:08:06.512Z,59.20
2022-08-25T01:09:09.449Z,59.20
2022-08-25T01:10:13.452Z,59.30
2022-08-25T01:11:16.129Z,59.30
2022-08-25T01:12:18.716Z,59.30
2022-08-25T01:13:28.037Z,59.40
2022-08-25T01:14:32.352Z,59.30
2022-08-25T01:15:35.149Z,59.40
2022-08-25T01:16:40.789Z,59.40
2022-08-25T01:17:50.185Z,59.30
2022-08-25T01:18:58.386Z,59.40
2022-08-25T01:20:00.726Z,59.40
2022-08-25T01:21:03.159Z,59.50
2022-08-25T01:22:05.784Z,59.40
2022-08-25T01:23:08.210Z,59.50
2022-08-25T01:24:15.776Z,59.40
2022-08-25T01:25:20.960Z,59.60
2022-08-25T01:26:30.212Z,59.50
2022-08-25T01:27:33.415Z,59.50
2022-08-25T01:28:40.720Z,59.50
2022-08-25T01:29:43.054Z,59.50
2022-08-25T01:30:45.479Z,59.50
2022-08-25T01:31:57.327Z,59.50
2022-08-25T01:33:02.466Z,59.60
2022-08-25T01:34:07.451Z,59.60
2022-08-25T01:35:09.766Z,59.60
2022-08-25T01:36:12.112Z,59.60
2022-08-25T01:37:19.350Z,59.60
2022-08-25T01:38:23.058Z,59.60
2022-08-25T01:39:27.145Z,59.70
2022-08-25T01:40:32.840Z,59.60
2022-08-25T01:41:40.028Z,59.60
2022-08-25T01:43:02.651Z,59.60
2022-08-25T01:44:08.799Z,59.60
2022-08-25T01:45:18.928Z,59.70
2022-08-25T01:46:21.995Z,59.70
2022-08-25T01:47:24.443Z,59.70
2022-08-25T01:48:26.733Z,59.70
2022-08-25T01:49:29.067Z,59.70
2022-08-25T01:50:31.584Z,59.80
2022-08-25T01:51:39.958Z,59.80
2022-08-25T01:53:02.700Z,59.70
2022-08-25T01:54:07.803Z,59.80
2022-08-25T01:55:10.121Z,59.80
2022-08-25T01:56:16.155Z,59.80
2022-08-25T01:57:19.944Z,59.80
2022-08-25T01:58:28.914Z,59.90
2022-08-25T01:59:31.245Z,59.80
2022-08-25T02:00:35.461Z,59.80
2022-08-25T02:01:37.919Z,59.80
2022-08-25T02:02:42.522Z,59.80
2022-08-25T02:03:48.340Z,59.80
2022-08-25T02:04:50.930Z,59.90
2022-08-25T02:05:54.742Z,59.90
2022-08-25T02:06:57.605Z,59.90
2022-08-25T02:08:00.930Z,59.90
2022-08-25T02:09:10.079Z,59.90
2022-08-25T02:10:15.463Z,60.00
2022-08-25T02:11:17.860Z,60.00
2022-08-25T02:12:20.324Z,60.00
2022-08-25T02:13:31.237Z,60.00
2022-08-25T02:14:35.603Z,59.90
2022-08-25T02:15:51.533Z,60.00
2022-08-25T02:16:54.547Z,60.00
2022-08-25T02:18:00.276Z,60.00
2022-08-25T02:19:04.622Z,60.00
2022-08-25T02:20:09.515Z,60.00
2022-08-25T02:21:11.870Z,60.00
2022-08-25T02:22:14.194Z,60.00
2022-08-25T02:23:19.074Z,60.00
2022-08-25T02:24:21.403Z,60.00
2022-08-25T02:25:23.751Z,60.00
2022-08-25T02:26:26.252Z,60.00
2022-08-25T02:27:31.784Z,60.00
2022-08-25T02:28:34.498Z,60.10
2022-08-25T02:29:36.911Z,60.10
2022-08-25T02:30:42.629Z,60.10
2022-08-25T02:31:45.131Z,60.10
2022-08-25T02:32:47.475Z,60.10
2022-08-25T02:33:50.166Z,60.10
2022-08-25T02:34:53.048Z,60.10
2022-08-25T02:36:01.192Z,60.10
2022-08-25T02:37:03.593Z,60.20
2022-08-25T02:38:07.291Z,60.10
2022-08-25T02:39:13.556Z,60.10
2022-08-25T02:40:16.196Z,60.20
2022-08-25T02:41:23.723Z,60.20
2022-08-25T02:42:36.904Z,60.20
2022-08-25T02:43:43.457Z,60.20
2022-08-25T02:44:45.825Z,60.20
2022-08-25T02:45:48.194Z,60.20
2022-08-25T02:46:53.035Z,60.20
2022-08-25T02:47:55.625Z,60.20
2022-08-25T02:48:58.479Z,60.20
2022-08-25T02:50:00.858Z,60.20
2022-08-25T02:51:06.416Z,60.30
2022-08-25T02:52:11.302Z,60.20
2022-08-25T02:53:14.025Z,60.20
2022-08-25T02:54:16.374Z,60.30
2022-08-25T02:55:19.281Z,60.30
2022-08-25T02:56:21.599Z,60.20
2022-08-25T02:57:27.341Z,60.30
2022-08-25T02:58:29.773Z,60.30
2022-08-25T02:59:33.265Z,60.30
2022-08-25T03:00:36.295Z,60.30
2022-08-25T03:01:38.780Z,60.30
2022-08-25T03:02:41.943Z,60.40
2022-08-25T03:03:46.991Z,60.30
2022-08-25T03:04:49.496Z,60.30
2022-08-25T03:05:56.477Z,60.40
2022-08-25T03:06:59.420Z,60.40
2022-08-25T03:08:02.804Z,60.30
2022-08-25T03:09:05.263Z,60.40
2022-08-25T03:10:13.105Z,60.40
2022-08-25T03:11:16.643Z,60.30
2022-08-25T03:12:18.994Z,60.40
2022-08-25T03:13:21.327Z,60.40
2022-08-25T03:14:24.018Z,60.40
2022-08-25T03:15:30.585Z,60.40
2022-08-25T03:16:33.490Z,60.40
2022-08-25T03:17:36.735Z,60.40
2022-08-25T03:18:41.305Z,60.40
2022-08-25T03:19:44.482Z,60.50
2022-08-25T03:20:46.861Z,60.50
2022-08-25T03:21:52.310Z,61.00
2022-08-25T03:22:54.617Z,60.40
2022-08-25T03:23:58.633Z,60.50
2022-08-25T03:25:23.913Z,60.50
2022-08-25T03:26:45.021Z,60.50
2022-08-25T03:27:49.301Z,60.50
2022-08-25T03:28:52.302Z,61.00
2022-08-25T03:29:56.837Z,60.50
2022-08-25T03:31:00.583Z,60.50
2022-08-25T03:32:03.237Z,60.50
2022-08-25T03:33:07.937Z,60.60
2022-08-25T03:34:11.544Z,60.50
2022-08-25T03:35:19.459Z,60.60
2022-08-25T03:36:24.077Z,60.50
2022-08-25T03:37:26.450Z,60.50
2022-08-25T03:38:28.845Z,60.50
2022-08-25T03:39:31.284Z,60.60
2022-08-25T03:40:38.439Z,60.60
2022-08-25T03:41:40.807Z,60.60
2022-08-25T03:42:46.793Z,60.60
2022-08-25T03:43:50.669Z,60.60
2022-08-25T03:44:56.367Z,60.60
2022-08-25T03:46:01.626Z,60.60
2022-08-25T03:47:04.329Z,60.50
2022-08-25T03:48:06.815Z,60.60
2022-08-25T03:49:19.695Z,60.70
2022-08-25T03:50:22.971Z,60.60
2022-08-25T03:51:29.229Z,60.60
2022-08-25T03:52:31.562Z,60.70
2022-08-25T03:53:33.946Z,60.70
2022-08-25T03:54:36.327Z,61.20
2022-08-25T03:55:38.750Z,60.60
2022-08-25T03:56:44.388Z,60.70
2022-08-25T03:57:46.717Z,60.70
2022-08-25T03:58:49.126Z,60.70
2022-08-25T03:59:53.738Z,60.70
2022-08-25T04:01:00.166Z,60.70
2022-08-25T04:02:02.772Z,60.70
2022-08-25T04:03:05.841Z,60.70
2022-08-25T04:04:10.257Z,60.70
2022-08-25T04:05:13.260Z,60.70
2022-08-25T04:06:19.491Z,60.70
2022-08-25T04:07:21.875Z,60.70
2022-08-25T04:08:24.425Z,60.70
2022-08-25T04:09:28.254Z,60.70
2022-08-25T04:10:36.098Z,60.70
2022-08-25T04:11:39.391Z,60.70
2022-08-25T04:12:45.285Z,60.70
2022-08-25T04:13:51.060Z,60.70
2022-08-25T04:14:55.587Z,60.70
2022-08-25T04:15:57.942Z,60.70
2022-08-25T04:17:00.377Z,60.70
2022-08-25T04:18:03.301Z,60.70
2022-08-25T04:19:09.262Z,60.70
2022-08-25T04:20:15.160Z,60.80
2022-08-25T04:21:19.578Z,60.70
2022-08-25T04:22:22.489Z,60.70
2022-08-25T04:23:25.440Z,60.70
2022-08-25T04:24:27.770Z,60.70
2022-08-25T04:25:31.317Z,60.80
2022-08-25T04:26:42.387Z,60.80
2022-08-25T04:27:44.734Z,60.70
2022-08-25T04:28:47.701Z,60.70
2022-08-25T04:29:50.024Z,60.70
2022-08-25T04:30:52.391Z,60.80
2022-08-25T04:31:55.790Z,60.80
2022-08-25T04:32:58.180Z,60.80
2022-08-25T04:34:04.790Z,60.80
2022-08-25T04:35:22.172Z,60.80
2022-08-25T04:36:25.065Z,60.80
2022-08-25T04:37:27.439Z,60.80
2022-08-25T04:38:32.873Z,60.80
2022-08-25T04:39:37.067Z,60.80
2022-08-25T04:40:41.818Z,60.80
2022-08-25T04:41:44.121Z,60.80
2022-08-25T04:42:47.301Z,60.80
2022-08-25T04:43:51.363Z,60.80
2022-08-25T04:44:55.950Z,60.80
2022-08-25T04:45:59.086Z,60.80
2022-08-25T04:47:01.604Z,60.80
2022-08-25T04:48:04.215Z,60.80
2022-08-25T04:49:06.764Z,60.90
2022-08-25T04:50:09.396Z,60.80
2022-08-25T04:51:14.580Z,60.80
2022-08-25T04:52:19.105Z,60.80
2022-08-25T04:53:22.028Z,60.80
2022-08-25T04:54:24.667Z,60.80
2022-08-25T04:55:29.595Z,60.90
2022-08-25T04:56:38.929Z,60.80
2022-08-25T04:57:41.294Z,60.90
2022-08-25T04:58:50.145Z,60.90
2022-08-25T04:59:52.582Z,60.80
2022-08-25T05:01:02.663Z,60.80
2022-08-25T05:02:06.458Z,60.80
2022-08-25T05:03:09.211Z,60.80
2022-08-25T05:04:14.653Z,60.90
2022-08-25T05:05:30.531Z,60.90
2022-08-25T05:06:35.143Z,60.90
2022-08-25T05:07:37.800Z,60.90
2022-08-25T05:08:40.161Z,60.90
2022-08-25T05:09:42.726Z,60.80
2022-08-25T05:10:45.066Z,60.80
2022-08-25T05:11:47.964Z,60.90
2022-08-25T05:13:00.973Z,60.80
2022-08-25T05:14:04.507Z,60.80
2022-08-25T05:15:27.572Z,60.90
2022-08-25T05:16:34.875Z,60.90
2022-08-25T05:17:37.195Z,60.90
2022-08-25T05:18:39.729Z,60.90
2022-08-25T05:19:42.685Z,60.90
2022-08-25T05:20:46.156Z,60.90
2022-08-25T05:21:50.110Z,60.90
2022-08-25T05:22:55.476Z,60.90
2022-08-25T05:24:01.660Z,60.90
2022-08-25T05:25:04.179Z,60.90
2022-08-25T05:26:09.410Z,60.90
2022-08-25T05:27:15.140Z,60.90
2022-08-25T05:28:19.454Z,60.90
2022-08-25T05:29:24.563Z,60.90
2022-08-25T05:30:28.378Z,60.90
2022-08-25T05:31:31.654Z,60.90
2022-08-25T05:32:34.262Z,60.90
2022-08-25T05:33:37.927Z,60.90
2022-08-25T05:34:40.229Z,60.90
2022-08-25T05:35:43.005Z,60.90
2022-08-25T05:36:45.427Z,60.90
2022-08-25T05:37:48.058Z,60.90
2022-08-25T05:38:50.624Z,60.90
2022-08-25T05:39:52.947Z,60.90
2022-08-25T05:41:04.762Z,60.90
2022-08-25T05:42:07.372Z,60.90
2022-08-25T05:43:10.487Z,60.90
2022-08-25T05:44:19.149Z,60.90
2022-08-25T05:45:23.884Z,60.90
2022-08-25T05:46:26.807Z,61.00
2022-08-25T05:47:29.151Z,61.00
2022-08-25T05:48:31.510Z,61.00
2022-08-25T05:49:33.842Z,61.00
2022-08-25T05:50:36.217Z,61.00
2022-08-25T05:51:40.991Z,61.00
2022-08-25T05:52:46.650Z,61.00
2022-08-25T05:53:50.899Z,61.00
2022-08-25T05:54:55.929Z,61.00
2022-08-25T05:56:00.040Z,61.00
2022-08-25T05:57:02.421Z,61.50
2022-08-25T05:58:07.479Z,61.00
2022-08-25T05:59:13.114Z,61.00
2022-08-25T06:00:17.164Z,61.00
2022-08-25T06:01:40.605Z,61.00
2022-08-25T06:02:48.380Z,61.00
2022-08-25T06:03:54.573Z,61.00
2022-08-25T06:04:58.786Z,61.00
2022-08-25T06:06:07.952Z,61.00
2022-08-25T06:07:10.505Z,61.00
2022-08-25T06:08:15.947Z,61.00
2022-08-25T06:09:18.254Z,61.00
2022-08-25T06:10:21.926Z,61.00
2022-08-25T06:11:25.259Z,61.00
2022-08-25T06:12:27.558Z,61.10
2022-08-25T06:13:32.118Z,61.10
2022-08-25T06:14:35.035Z,61.00
2022-08-25T06:15:40.389Z,61.00
2022-08-25T06:16:42.769Z,61.10
2022-08-25T06:17:45.409Z,61.10
2022-08-25T06:18:50.576Z,61.00
2022-08-25T06:19:53.865Z,61.10
2022-08-25T06:20:56.215Z,61.10
2022-08-25T06:21:58.669Z,61.10
2022-08-25T06:23:03.988Z,61.10
2022-08-25T06:24:10.956Z,61.10
2022-08-25T06:25:18.528Z,61.10
2022-08-25T06:26:21.630Z,61.10
2022-08-25T06:27:24.106Z,61.10
2022-08-25T06:28:26.412Z,61.10
2022-08-25T06:29:29.151Z,61.10
2022-08-25T06:30:31.491Z,61.10
2022-08-25T06:31:33.838Z,61.10
2022-08-25T06:32:40.553Z,61.20
2022-08-25T06:33:44.045Z,61.10
2022-08-25T06:34:46.478Z,61.20
2022-08-25T06:35:51.307Z,61.10
2022-08-25T06:36:53.671Z,61.10
2022-08-25T06:37:59.013Z,61.20
2022-08-25T06:39:02.267Z,61.20
2022-08-25T06:40:07.200Z,61.20
2022-08-25T06:41:10.789Z,61.20
2022-08-25T06:42:13.186Z,61.20
2022-08-25T06:43:17.993Z,61.30
2022-08-25T06:44:21.368Z,61.20
2022-08-25T06:45:27.473Z,61.20
2022-08-25T06:46:36.558Z,61.20
2022-08-25T06:47:39.381Z,61.20
2022-08-25T06:48:42.653Z,61.20
2022-08-25T06:49:45.930Z,61.20
2022-08-25T06:50:48.350Z,61.20
2022-08-25T06:51:50.812Z,61.20
2022-08-25T06:52:53.149Z,61.20
2022-08-25T06:53:55.846Z,61.20
2022-08-25T06:54:58.213Z,61.20
2022-08-25T06:56:05.957Z,61.20
2022-08-25T06:57:09.580Z,61.30
2022-08-25T06:58:14.447Z,61.20
2022-08-25T06:59:17.400Z,61.30
2022-08-25T07:00:20.059Z,61.30
2022-08-25T07:01:26.814Z,61.30
2022-08-25T07:02:32.192Z,61.30
2022-08-25T07:03:38.218Z,61.30
2022-08-25T07:04:40.859Z,61.30
2022-08-25T07:05:53.673Z,61.30
2022-08-25T07:06:56.041Z,61.30
2022-08-25T07:07:58.408Z,61.30
2022-08-25T07:09:01.458Z,61.30
2022-08-25T07:10:05.128Z,61.30
2022-08-25T07:11:16.346Z,61.30
2022-08-25T07:12:20.663Z,61.30
2022-08-25T07:13:23.195Z,61.30
2022-08-25T07:14:25.684Z,61.30
2022-08-25T07:15:28.014Z,61.40
2022-08-25T07:16:33.373Z,61.40
2022-08-25T07:17:35.771Z,61.40
2022-08-25T07:18:38.351Z,61.40
2022-08-25T07:19:43.291Z,61.40
2022-08-25T07:20:46.889Z,61.40
2022-08-25T07:21:52.111Z,61.40
2022-08-25T07:22:54.437Z,61.40
2022-08-25T07:23:58.595Z,61.40
2022-08-25T07:25:05.061Z,61.40
2022-08-25T07:26:36.260Z,61.40
2022-08-25T07:27:36.239Z,61.50
2022-08-25T07:28:38.680Z,61.50
2022-08-25T07:29:50.325Z,61.40
2022-08-25T07:30:52.805Z,61.50
2022-08-25T07:31:56.046Z,61.50
2022-08-25T07:32:58.449Z,61.50
2022-08-25T07:34:19.219Z,61.50
2022-08-25T07:35:24.168Z,61.50
2022-08-25T07:36:28.710Z,61.50
2022-08-25T07:37:49.177Z,61.50
2022-08-25T07:38:52.461Z,61.50
2022-08-25T07:39:55.385Z,61.50
2022-08-25T07:41:03.924Z,61.60
2022-08-25T07:42:12.046Z,61.50
2022-08-25T07:43:14.623Z,61.50
2022-08-25T07:44:16.977Z,61.60
2022-08-25T07:45:30.862Z,61.60
2022-08-25T07:46:34.150Z,61.60
2022-08-25T07:47:39.399Z,61.60
2022-08-25T07:48:44.109Z,61.60
2022-08-25T07:49:55.479Z,61.60
2022-08-25T07:50:57.854Z,61.60
2022-08-25T07:52:06.148Z,61.60
2022-08-25T07:53:10.267Z,61.60
2022-08-25T07:54:16.298Z,61.60
2022-08-25T07:55:19.116Z,61.60
2022-08-25T07:56:21.462Z,61.70
2022-08-25T07:57:26.530Z,61.60
2022-08-25T07:58:31.470Z,61.70
2022-08-25T07:59:40.280Z,61.60
2022-08-25T08:00:43.218Z,61.60
2022-08-25T08:01:45.595Z,61.70
2022-08-25T08:02:47.991Z,61.70
2022-08-25T08:03:54.460Z,61.60
2022-08-25T08:04:56.904Z,61.60
2022-08-25T08:05:59.724Z,61.60
2022-08-25T08:07:02.281Z,61.70
2022-08-25T08:08:07.774Z,61.70
2022-08-25T08:09:12.151Z,61.80
2022-08-25T08:11:45.162Z,62.30
2022-08-25T08:12:54.362Z,61.80
2022-08-25T08:13:58.324Z,61.90
2022-08-25T08:15:00.905Z,62.00
2022-08-25T08:16:08.294Z,62.00
2022-08-25T08:17:11.066Z,62.20
2022-08-25T08:18:13.475Z,62.20
2022-08-25T08:19:17.659Z,62.20
2022-08-25T08:20:26.101Z,62.30
2022-08-25T08:21:33.119Z,62.50
2022-08-25T08:22:41.097Z,62.50
2022-08-25T08:23:48.418Z,62.60
2022-08-25T08:24:53.930Z,62.60
2022-08-25T08:26:00.136Z,62.80
2022-08-25T08:27:02.794Z,62.80
2022-08-25T08:28:07.206Z,62.80
2022-08-25T08:29:09.854Z,62.80
2022-08-25T08:30:15.397Z,62.80
2022-08-25T08:31:21.191Z,62.80
2022-08-25T08:32:31.513Z,63.00
2022-08-25T08:33:43.654Z,63.00
2022-08-25T08:34:51.206Z,63.10
2022-08-25T08:36:00.861Z,63.10
2022-08-25T08:37:08.560Z,63.10
2022-08-25T08:38:18.429Z,63.00
2022-08-25T08:39:24.157Z,63.00
2022-08-25T08:40:30.196Z,62.70
2022-08-25T08:42:17.899Z,62.80
2022-08-25T08:43:20.822Z,63.10
2022-08-25T08:44:37.876Z,63.60
2022-08-25T08:45:50.902Z,63.50
2022-08-25T08:47:22.542Z,63.60
2022-08-25T08:48:32.291Z,63.60
2022-08-25T08:49:43.732Z,63.60
2022-08-25T08:51:09.837Z,63.50
2022-08-25T08:52:18.478Z,63.50
2022-08-25T08:53:34.109Z,63.50
2022-08-25T08:54:39.562Z,63.40
2022-08-25T08:55:51.875Z,63.40
2022-08-25T08:57:17.669Z,63.40
2022-08-25T08:58:21.481Z,63.40
2022-08-25T08:59:41.778Z,63.40
2022-08-25T09:00:52.262Z,63.40
2022-08-25T09:02:00.449Z,63.40
2022-08-25T09:03:11.077Z,63.40
2022-08-25T09:04:32.046Z,63.40
2022-08-25T09:05:50.305Z,63.40
2022-08-25T09:06:55.603Z,63.30
2022-08-25T09:08:04.297Z,63.30
2022-08-25T09:09:12.581Z,63.30
2022-08-25T09:10:17.445Z,63.30
2022-08-25T09:11:36.155Z,63.40
2022-08-25T09:12:58.821Z,63.30
2022-08-25T09:14:21.741Z,63.30
2022-08-25T09:16:20.514Z,63.40
2022-08-25T09:18:17.709Z,63.40
2022-08-25T09:19:48.676Z,63.40
2022-08-25T09:21:02.797Z,63.40
2022-08-25T09:22:34.865Z,63.40
2022-08-25T09:23:57.358Z,63.30
2022-08-25T09:25:10.428Z,63.30
2022-08-25T09:26:36.992Z,63.40
2022-08-25T09:27:59.461Z,63.30
2022-08-25T09:29:14.667Z,63.40
2022-08-25T09:30:21.497Z,63.30
2022-08-25T09:31:43.131Z,63.30
2022-08-25T09:32:52.233Z,63.30
2022-08-25T09:33:57.858Z,63.30
2022-08-25T09:35:02.858Z,63.30
2022-08-25T09:36:06.142Z,63.30
2022-08-25T09:37:08.912Z,63.30
2022-08-25T09:38:13.260Z,63.30
2022-08-25T09:39:15.644Z,63.20
2022-08-25T09:40:18.302Z,63.20
2022-08-25T09:41:46.903Z,63.20
2022-08-25T09:42:58.145Z,63.20
2022-08-25T09:44:06.801Z,63.20
2022-08-25T09:45:13.938Z,63.20
2022-08-25T09:46:28.293Z,63.30
2022-08-25T09:47:31.744Z,63.20
2022-08-25T09:48:56.029Z,63.20
2022-08-25T09:50:01.453Z,63.30
2022-08-25T09:51:20.161Z,63.30
2022-08-25T09:52:26.330Z,63.20
2022-08-25T09:53:29.937Z,63.20
2022-08-25T09:54:43.974Z,63.20
2022-08-25T09:56:00.048Z,63.20
2022-08-25T09:57:05.388Z,63.20
2022-08-25T09:58:22.914Z,63.20
2022-08-25T09:59:35.004Z,63.20
2022-08-25T10:00:38.135Z,63.20
2022-08-25T10:01:58.483Z,63.20
2022-08-25T10:03:36.489Z,63.20
2022-08-25T10:04:40.308Z,63.20
2022-08-25T10:06:13.679Z,63.20
2022-08-25T10:07:29.191Z,63.20
2022-08-25T10:08:37.001Z,63.20
2022-08-25T10:09:43.447Z,63.20
2022-08-25T10:10:53.117Z,63.20
2022-08-25T10:12:01.127Z,63.20
2022-08-25T10:13:15.189Z,63.20
2022-08-25T10:14:22.543Z,63.10
2022-08-25T10:15:33.957Z,63.10
2022-08-25T10:16:36.784Z,63.10
2022-08-25T10:17:40.934Z,63.10
2022-08-25T10:18:45.718Z,63.10
2022-08-25T10:20:19.688Z,63.10
2022-08-25T10:21:22.559Z,63.10
2022-08-25T10:22:32.353Z,63.10
2022-08-25T10:23:38.608Z,63.10
2022-08-25T10:24:44.260Z,63.10
2022-08-25T10:25:57.681Z,63.10
2022-08-25T10:27:17.439Z,63.10
2022-08-25T10:28:34.072Z,63.00
2022-08-25T10:30:03.933Z,63.00
2022-08-25T10:31:18.719Z,63.00
2022-08-25T10:32:27.613Z,63.10
2022-08-25T10:33:45.175Z,63.00
2022-08-25T10:34:58.034Z,63.00
2022-08-25T10:36:20.450Z,63.00
2022-08-25T10:37:51.292Z,63.00
2022-08-25T10:39:01.958Z,63.00
2022-08-25T10:40:25.169Z,63.00
2022-08-25T10:41:49.773Z,63.00
2022-08-25T10:43:14.833Z,63.00
2022-08-25T10:45:21.302Z,63.00
2022-08-25T10:46:49.550Z,63.00
2022-08-25T10:48:13.024Z,63.00
2022-08-25T10:49:26.357Z,63.00
2022-08-25T10:50:49.416Z,63.00
2022-08-25T10:51:54.634Z,63.10
2022-08-25T10:53:06.013Z,63.10
2022-08-25T10:54:36.458Z,63.10
2022-08-25T10:56:08.542Z,63.10
2022-08-25T10:57:29.505Z,63.10
2022-08-25T10:58:34.905Z,63.10
2022-08-25T11:00:08.422Z,63.10
2022-08-25T11:01:28.924Z,63.10
2022-08-25T11:02:55.806Z,63.10
2022-08-25T11:04:09.497Z,63.10
2022-08-25T11:05:26.348Z,63.10
2022-08-25T11:07:05.925Z,63.10
2022-08-25T11:08:50.108Z,63.10
2022-08-25T11:09:57.369Z,63.10
2022-08-25T11:11:06.714Z,63.10
2022-08-25T11:12:15.242Z,63.10
2022-08-25T11:13:52.923Z,63.10
2022-08-25T11:15:01.922Z,63.10
2022-08-25T11:16:33.995Z,63.10
2022-08-25T11:17:58.978Z,63.20
2022-08-25T11:19:23.377Z,63.10
2022-08-25T11:20:44.765Z,63.10
2022-08-25T11:21:53.501Z,63.10
2022-08-25T11:23:19.832Z,63.10
2022-08-25T11:24:58.395Z,63.10
2022-08-25T11:26:08.979Z,63.10
2022-08-25T11:27:43.010Z,63.10
2022-08-25T11:29:02.957Z,63.10
2022-08-25T11:30:12.838Z,62.90
2022-08-25T11:31:17.193Z,63.00
2022-08-25T11:32:24.545Z,63.00
2022-08-25T11:33:30.982Z,63.00
2022-08-25T11:34:36.141Z,63.00
2022-08-25T11:35:56.387Z,63.00
2022-08-25T11:37:11.302Z,63.00
2022-08-25T11:38:22.870Z,63.00
2022-08-25T11:39:40.281Z,63.00
2022-08-25T11:41:00.494Z,63.00
2022-08-25T11:42:14.850Z,62.90
2022-08-25T11:43:49.534Z,63.00
2022-08-25T11:45:17.416Z,63.00
2022-08-25T11:46:32.532Z,63.00
2022-08-25T11:47:51.239Z,63.00
2022-08-25T11:49:17.059Z,63.00
2022-08-25T11:50:30.319Z,62.90
2022-08-25T11:51:41.806Z,63.00
2022-08-25T11:52:51.160Z,62.90
2022-08-25T11:54:26.450Z,63.00
2022-08-25T11:55:35.175Z,62.90
2022-08-25T11:56:41.684Z,62.90
2022-08-25T11:57:52.823Z,62.90
2022-08-25T11:58:56.000Z,62.90
2022-08-25T12:00:14.508Z,62.90
2022-08-25T12:01:47.799Z,62.90
2022-08-25T12:02:51.211Z,62.90
2022-08-25T12:04:12.322Z,62.90
2022-08-25T12:05:17.310Z,62.90
2022-08-25T12:06:33.366Z,62.90
2022-08-25T12:07:49.796Z,62.90
2022-08-25T12:08:54.126Z,62.90
2022-08-25T12:10:03.127Z,62.90
2022-08-25T12:11:11.220Z,62.90
2022-08-25T12:12:39.618Z,62.90
2022-08-25T12:13:49.910Z,62.90
2022-08-25T12:14:53.327Z,62.80
2022-08-25T12:16:00.219Z,62.80
2022-08-25T12:17:18.241Z,62.80
2022-08-25T12:18:32.204Z,62.80
2022-08-25T12:19:34.510Z,62.90
2022-08-25T12:20:57.787Z,62.80
2022-08-25T12:22:03.464Z,62.80
2022-08-25T12:23:08.065Z,62.80
2022-08-25T12:24:13.996Z,62.80
2022-08-25T12:25:37.836Z,63.30
2022-08-25T12:26:51.195Z,62.80
2022-08-25T12:28:09.237Z,62.80
2022-08-25T12:29:24.510Z,62.80
2022-08-25T12:30:45.695Z,62.80
2022-08-25T12:32:09.346Z,62.80
2022-08-25T12:33:17.534Z,62.80
2022-08-25T12:34:40.114Z,62.80
2022-08-25T12:36:00.936Z,62.80
2022-08-25T12:37:13.929Z,62.80
2022-08-25T12:38:43.701Z,62.80
2022-08-25T12:39:58.711Z,62.80
2022-08-25T12:41:09.621Z,62.80
2022-08-25T12:42:29.828Z,62.70
2022-08-25T12:43:38.083Z,62.80
2022-08-25T12:44:48.592Z,62.80
2022-08-25T12:46:29.581Z,62.80
2022-08-25T12:47:32.830Z,62.80
2022-08-25T12:48:35.158Z,62.80
2022-08-25T12:49:37.643Z,62.80
2022-08-25T12:50:44.941Z,62.80
2022-08-25T12:52:07.272Z,62.80
2022-08-25T12:53:15.707Z,62.80
2022-08-25T12:54:36.087Z,62.80
2022-08-25T12:55:45.082Z,62.80
2022-08-25T12:56:59.093Z,62.80
2022-08-25T12:58:02.286Z,62.70
2022-08-25T12:59:25.003Z,62.70
2022-08-25T13:00:32.749Z,62.70
2022-08-25T13:01:54.397Z,62.70
2022-08-25T13:03:01.720Z,62.70
2022-08-25T13:04:14.739Z,62.70
2022-08-25T13:05:25.968Z,62.70
2022-08-25T13:07:13.541Z,62.70
2022-08-25T13:08:53.814Z,62.70
2022-08-25T13:10:01.858Z,62.60
2022-08-25T13:11:17.279Z,62.70
2022-08-25T13:12:33.910Z,62.60
2022-08-25T13:13:49.287Z,62.70
2022-08-25T13:14:58.116Z,62.60
2022-08-25T13:16:09.907Z,62.60
2022-08-25T13:17:25.804Z,62.60
2022-08-25T13:18:31.258Z,62.60
2022-08-25T13:19:37.166Z,62.60
2022-08-25T13:20:40.834Z,62.60
2022-08-25T13:21:47.241Z,62.60
2022-08-25T13:22:57.332Z,62.60
2022-08-25T13:24:05.933Z,62.60
2022-08-25T13:25:16.310Z,62.60
2022-08-25T13:26:32.994Z,62.50
2022-08-25T13:27:37.129Z,62.50
2022-08-25T13:28:50.463Z,62.50
2022-08-25T13:29:56.747Z,62.50
2022-08-25T13:31:02.801Z,62.50
2022-08-25T13:32:12.905Z,62.60
2022-08-25T13:33:23.722Z,62.50
2022-08-25T13:34:35.241Z,62.60
2022-08-25T13:35:37.931Z,62.50
2022-08-25T13:37:03.608Z,62.50
2022-08-25T13:38:19.450Z,62.50
2022-08-25T13:39:52.616Z,62.50
2022-08-25T13:41:03.494Z,62.50
2022-08-25T13:42:16.973Z,62.50
2022-08-25T13:43:27.346Z,62.50
2022-08-25T13:44:32.028Z,62.50
2022-08-25T13:45:41.116Z,62.40
2022-08-25T13:46:45.573Z,62.50
2022-08-25T13:47:55.963Z,62.40
2022-08-25T13:49:09.016Z,62.40
2022-08-25T13:50:14.838Z,62.50
2022-08-25T13:51:31.286Z,62.30
2022-08-25T13:52:34.628Z,62.40
2022-08-25T13:53:37.552Z,62.40
2022-08-25T13:54:42.946Z,62.40
2022-08-25T13:55:51.740Z,62.30
2022-08-25T13:57:03.589Z,62.30
2022-08-25T13:58:24.889Z,62.40
2022-08-25T13:59:43.759Z,62.40
2022-08-25T14:01:22.443Z,62.30
2022-08-25T14:02:44.830Z,62.40
2022-08-25T14:03:54.859Z,62.30
2022-08-25T14:04:57.234Z,62.30
2022-08-25T14:06:14.949Z,62.30
2022-08-25T14:07:20.448Z,62.30
2022-08-25T14:08:35.276Z,62.30
2022-08-25T14:09:46.570Z,62.30
2022-08-25T14:10:48.918Z,62.30
2022-08-25T14:11:58.415Z,62.20
2022-08-25T14:13:16.970Z,62.20
2022-08-25T14:14:24.525Z,62.30
2022-08-25T14:15:29.590Z,62.20
2022-08-25T14:16:49.465Z,62.20
2022-08-25T14:18:07.268Z,62.20
2022-08-25T14:19:19.914Z,62.20
2022-08-25T14:20:28.885Z,62.20
2022-08-25T14:21:34.494Z,62.20
2022-08-25T14:22:37.328Z,62.20
2022-08-25T14:23:47.321Z,62.20
2022-08-25T14:24:53.088Z,62.20
2022-08-25T14:25:57.695Z,62.20
2022-08-25T14:27:03.104Z,62.10
2022-08-25T14:28:10.923Z,62.20
2022-08-25T14:29:16.923Z,62.10
2022-08-25T14:30:19.277Z,62.10
2022-08-25T14:31:39.391Z,62.10
2022-08-25T14:32:42.067Z,62.10
2022-08-25T14:33:55.531Z,62.10
2022-08-25T14:34:57.881Z,62.10
2022-08-25T14:36:02.725Z,62.10
2022-08-25T14:37:17.691Z,62.10
2022-08-25T14:38:21.225Z,62.20
2022-08-25T14:39:24.692Z,62.10
2022-08-25T14:40:30.866Z,62.20
2022-08-25T14:41:41.960Z,62.20
2022-08-25T14:42:44.467Z,62.10
2022-08-25T14:43:47.260Z,62.10
2022-08-25T14:44:50.661Z,62.10